Terminal Aerodrome Forecast
Issued by NWS

Home | Current Version | Previous Version | Text Only | Print | Product List | Glossary On
Versions: 1 2 3 4 5 6 7 8 9 10 11 12 13 14 15 16 17 18 19
000
FTUS44 KBMX 070530
TAFANB
TAF
KANB 070530Z 0706/0806 27005KT P6SM SCT015 OVC025
     FM070700 33005KT P6SM SCT009 OVC020
     FM070900 34005KT P6SM SCT008 OVC012
      TEMPO 0711/0714 4SM BR BKN008
     FM071800 28005KT P6SM OVC025
     FM072100 28005KT P6SM BKN040=

USA.gov is the U.S. government's official web portal to all federal, state and local government web resources and services.